createdAt,value
2023-03-27T00:02:28.841Z,66.73
2023-03-27T00:04:56.800Z,66.75
2023-03-27T00:07:25.846Z,66.41
2023-03-27T00:09:53.709Z,66.42
2023-03-27T00:12:21.384Z,66.09
2023-03-27T00:14:50.687Z,66.35
2023-03-27T00:17:19.284Z,66.93
2023-03-27T00:19:46.954Z,66.81
2023-03-27T00:22:14.918Z,67.33
2023-03-27T00:24:42.891Z,67.75
2023-03-27T00:27:10.833Z,66.47
2023-03-27T00:29:39.765Z,67.15
2023-03-27T00:32:09.173Z,66.26
2023-03-27T00:34:37.538Z,66.82
2023-03-27T00:37:08.018Z,67.33
2023-03-27T00:39:35.754Z,68.53
2023-03-27T00:42:04.689Z,67.94
2023-03-27T00:44:34.451Z,68.76
2023-03-27T00:47:03.838Z,68.13
2023-03-27T00:49:38.031Z,67.77
2023-03-27T00:52:07.137Z,68.16
2023-03-27T00:54:40.234Z,69.88
2023-03-27T00:57:10.756Z,71.64
2023-03-27T00:59:41.931Z,73.54
2023-03-27T01:02:10.545Z,73.13
2023-03-27T01:04:42.430Z,74.16
2023-03-27T01:07:12.072Z,73.49
2023-03-27T01:09:39.823Z,74.02
2023-03-27T01:12:23.110Z,72.78
2023-03-27T01:15:12.922Z,71.54
2023-03-27T01:17:52.873Z,73.05
2023-03-27T01:21:02.307Z,73.46
2023-03-27T01:24:09.607Z,74.21
2023-03-27T01:26:59.283Z,74.87
2023-03-27T01:29:36.427Z,76.90
2023-03-27T01:32:53.360Z,78.10
2023-03-27T01:36:02.461Z,77.33
2023-03-27T01:38:49.270Z,76.15
2023-03-27T01:41:26.511Z,76.08
2023-03-27T01:43:59.364Z,76.09
2023-03-27T01:46:35.830Z,76.14
2023-03-27T01:49:11.207Z,75.11
2023-03-27T01:51:42.701Z,73.71
2023-03-27T01:54:16.474Z,72.66
2023-03-27T01:56:53.547Z,71.84
2023-03-27T01:59:27.156Z,72.06
2023-03-27T02:02:00.042Z,73.43
2023-03-27T02:04:33.165Z,71.87
2023-03-27T02:07:05.948Z,72.37
2023-03-27T02:09:37.693Z,73.12
2023-03-27T02:12:12.933Z,71.71
2023-03-27T02:14:44.357Z,70.54
2023-03-27T02:17:18.152Z,69.88
2023-03-27T02:19:53.000Z,70.54
2023-03-27T02:22:37.677Z,72.78
2023-03-27T02:25:27.697Z,72.45
2023-03-27T02:28:16.342Z,71.39
2023-03-27T02:31:05.393Z,71.83
2023-03-27T02:33:52.287Z,71.05
2023-03-27T02:36:32.486Z,71.92
2023-03-27T02:39:04.938Z,72.33
2023-03-27T02:41:39.466Z,71.00
2023-03-27T02:44:16.777Z,71.08
2023-03-27T02:46:53.186Z,71.67
2023-03-27T02:49:25.004Z,72.67
2023-03-27T02:51:58.060Z,72.80
2023-03-27T02:54:29.839Z,72.92
2023-03-27T02:57:02.078Z,73.01
2023-03-27T02:59:35.616Z,73.11
2023-03-27T03:02:04.898Z,73.03
2023-03-27T03:04:41.863Z,73.95
2023-03-27T03:07:11.449Z,73.25
2023-03-27T03:09:40.361Z,72.72
2023-03-27T03:12:08.916Z,72.53
2023-03-27T03:14:41.000Z,71.74
2023-03-27T03:17:08.852Z,73.17
2023-03-27T03:19:37.279Z,73.58
2023-03-27T03:22:05.291Z,73.48
2023-03-27T03:24:34.452Z,74.60
2023-03-27T03:27:03.852Z,73.69
2023-03-27T03:29:35.470Z,74.70
2023-03-27T03:32:05.834Z,74.63
2023-03-27T03:34:34.300Z,74.00
2023-03-27T03:37:04.258Z,75.18
2023-03-27T03:39:32.001Z,75.41
2023-03-27T03:41:59.774Z,75.58
2023-03-27T03:44:27.481Z,77.24
2023-03-27T03:46:55.304Z,77.31
2023-03-27T03:49:24.368Z,76.07
2023-03-27T03:52:04.261Z,76.88
2023-03-27T03:54:33.186Z,76.31
2023-03-27T03:57:01.063Z,76.49
2023-03-27T03:59:30.050Z,76.29
2023-03-27T04:01:57.730Z,76.48
2023-03-27T04:04:26.900Z,78.02
2023-03-27T04:06:58.158Z,79.83
2023-03-27T04:09:26.424Z,78.97
2023-03-27T04:11:54.107Z,79.83
2023-03-27T04:14:21.816Z,78.58
2023-03-27T04:16:49.454Z,79.65
2023-03-27T04:19:18.443Z,80.76
2023-03-27T04:21:48.347Z,80.87
2023-03-27T04:24:18.285Z,80.38
2023-03-27T04:26:46.857Z,80.82
2023-03-27T04:29:14.530Z,81.07
2023-03-27T04:31:46.586Z,81.47
2023-03-27T04:34:14.470Z,80.21
2023-03-27T04:36:44.253Z,80.43
2023-03-27T04:39:17.433Z,81.17
2023-03-27T04:41:49.299Z,82.24
2023-03-27T04:44:21.364Z,82.75
2023-03-27T04:46:50.246Z,81.32
2023-03-27T04:49:19.058Z,80.54
2023-03-27T04:51:46.848Z,80.36
2023-03-27T04:54:15.990Z,79.73
2023-03-27T04:56:45.713Z,79.48
2023-03-27T04:59:13.506Z,80.14
2023-03-27T05:01:41.444Z,79.38
2023-03-27T05:04:09.258Z,80.35
2023-03-27T05:06:39.242Z,80.78
2023-03-27T05:09:08.950Z,79.83
2023-03-27T05:11:38.018Z,80.28
2023-03-27T05:14:05.703Z,80.84
2023-03-27T05:16:35.869Z,81.73
2023-03-27T05:19:04.393Z,81.21
2023-03-27T05:21:32.214Z,80.96
2023-03-27T05:24:00.210Z,81.32
2023-03-27T05:26:27.872Z,81.79
2023-03-27T05:28:58.616Z,81.10
2023-03-27T05:31:27.380Z,81.02
2023-03-27T05:33:55.772Z,79.92
2023-03-27T05:36:23.608Z,80.04
2023-03-27T05:38:53.124Z,80.48
2023-03-27T05:41:21.557Z,80.87
2023-03-27T05:43:51.317Z,81.42
2023-03-27T05:46:21.799Z,80.48
2023-03-27T05:48:50.023Z,81.53
2023-03-27T05:51:17.980Z,81.63
2023-03-27T05:53:46.266Z,82.18
2023-03-27T05:56:36.461Z,80.94
2023-03-27T05:59:05.320Z,80.71
2023-03-27T06:01:36.231Z,78.07
2023-03-27T06:04:04.564Z,74.64
2023-03-27T06:06:32.969Z,72.14
2023-03-27T06:09:01.993Z,70.03
2023-03-27T06:11:30.675Z,68.76
2023-03-27T06:13:58.967Z,63.97
2023-03-27T06:16:26.771Z,61.52
2023-03-27T06:18:56.382Z,58.81
2023-03-27T06:21:24.154Z,52.83
2023-03-27T06:23:53.133Z,51.50
2023-03-27T06:26:21.140Z,49.98
2023-03-27T06:28:49.949Z,48.23
2023-03-27T06:31:20.046Z,47.01
2023-03-27T06:33:49.028Z,44.89
2023-03-27T06:36:18.192Z,44.31
2023-03-27T06:38:46.063Z,44.46
2023-03-27T06:41:14.847Z,42.93
2023-03-27T06:43:42.558Z,41.01
2023-03-27T06:46:10.733Z,40.85
2023-03-27T06:48:39.520Z,39.52
2023-03-27T06:51:08.031Z,38.62
2023-03-27T06:53:38.282Z,39.17
2023-03-27T06:56:07.376Z,37.72
2023-03-27T06:58:35.155Z,45.50
2023-03-27T07:01:03.591Z,54.44
2023-03-27T07:03:31.358Z,58.67
2023-03-27T07:06:00.516Z,54.78
2023-03-27T07:08:31.490Z,52.61
2023-03-27T07:11:11.782Z,52.57
2023-03-27T07:13:41.656Z,53.19
2023-03-27T07:16:11.437Z,51.23
2023-03-27T07:18:39.145Z,51.21
2023-03-27T07:21:08.207Z,49.94
2023-03-27T07:23:36.019Z,49.76
2023-03-27T07:26:08.805Z,49.42
2023-03-27T07:28:38.348Z,51.67
2023-03-27T07:31:20.127Z,51.62
2023-03-27T07:33:53.736Z,56.80
2023-03-27T07:36:22.490Z,54.07
2023-03-27T07:38:50.290Z,55.97
2023-03-27T07:41:19.591Z,57.82
2023-03-27T07:43:47.326Z,55.81
2023-03-27T07:46:15.124Z,54.36
2023-03-27T07:48:42.803Z,50.63
2023-03-27T07:51:14.105Z,46.61
2023-03-27T07:53:43.563Z,48.91
2023-03-27T07:56:11.441Z,51.20
2023-03-27T07:58:40.875Z,53.39
2023-03-27T08:01:08.662Z,55.48
2023-03-27T08:03:37.848Z,59.95
2023-03-27T08:06:07.203Z,58.03
2023-03-27T08:08:35.108Z,60.11
2023-03-27T08:11:04.244Z,62.71
2023-03-27T08:13:32.101Z,64.42
2023-03-27T08:16:10.050Z,66.94
2023-03-27T08:18:38.120Z,66.84
2023-03-27T08:21:08.315Z,64.81
2023-03-27T08:23:37.581Z,58.09
2023-03-27T08:26:06.118Z,55.05
2023-03-27T08:28:35.994Z,56.81
2023-03-27T08:31:11.806Z,52.45
2023-03-27T08:33:40.079Z,52.29
2023-03-27T08:36:10.631Z,50.97
2023-03-27T08:38:39.475Z,51.41
2023-03-27T08:41:09.169Z,52.81
2023-03-27T08:43:41.926Z,51.50
2023-03-27T08:46:17.725Z,47.02
2023-03-27T08:48:51.150Z,44.52
2023-03-27T08:51:25.005Z,43.54
2023-03-27T08:53:58.224Z,44.41
2023-03-27T08:56:27.123Z,52.27
2023-03-27T08:58:55.237Z,55.78
2023-03-27T09:01:31.182Z,57.64
2023-03-27T09:04:05.296Z,57.54
2023-03-27T09:06:40.545Z,60.78
2023-03-27T09:09:14.139Z,63.27
2023-03-27T09:11:55.943Z,63.57
2023-03-27T09:14:31.356Z,63.23
2023-03-27T09:17:05.884Z,61.70
2023-03-27T09:19:42.232Z,60.20
2023-03-27T09:22:16.589Z,61.08
2023-03-27T09:24:49.094Z,62.89
2023-03-27T09:27:20.322Z,62.28
2023-03-27T09:30:05.651Z,61.87
2023-03-27T09:32:35.906Z,60.44
2023-03-27T09:35:04.622Z,58.92
2023-03-27T09:37:35.120Z,60.31
2023-03-27T09:40:07.471Z,58.19
2023-03-27T09:42:40.664Z,60.12
2023-03-27T09:45:12.295Z,59.98
2023-03-27T09:47:46.834Z,58.65
2023-03-27T09:50:27.361Z,57.48
2023-03-27T09:53:08.589Z,59.29
2023-03-27T09:55:45.434Z,58.84
2023-03-27T09:58:17.078Z,59.26
2023-03-27T10:00:45.059Z,59.24
2023-03-27T10:03:18.650Z,60.06
2023-03-27T10:05:47.949Z,58.64
2023-03-27T10:08:38.232Z,57.98
2023-03-27T10:11:08.995Z,59.05
2023-03-27T10:13:36.701Z,59.46
2023-03-27T10:16:06.689Z,58.54
2023-03-27T10:18:43.399Z,58.27
2023-03-27T10:21:17.651Z,58.13
2023-03-27T10:23:48.197Z,57.28
2023-03-27T10:26:20.422Z,56.41
2023-03-27T10:28:52.886Z,56.14
2023-03-27T10:31:30.839Z,53.80
2023-03-27T10:34:03.397Z,56.33
2023-03-27T10:36:34.493Z,55.37
2023-03-27T10:39:07.240Z,54.79
2023-03-27T10:41:37.416Z,54.62
2023-03-27T10:44:08.257Z,55.24
2023-03-27T10:46:40.318Z,56.13
2023-03-27T10:49:20.967Z,56.75
2023-03-27T10:51:51.545Z,57.92
2023-03-27T10:54:34.106Z,62.56
2023-03-27T10:57:06.132Z,70.79
2023-03-27T10:59:42.361Z,70.65
2023-03-27T11:02:17.466Z,69.06
2023-03-27T11:04:53.095Z,74.45
2023-03-27T11:07:28.311Z,76.32
2023-03-27T11:10:05.063Z,75.79
2023-03-27T11:12:37.227Z,75.71
2023-03-27T11:15:14.643Z,76.63
2023-03-27T11:17:48.428Z,79.48
2023-03-27T11:20:26.203Z,76.58
2023-03-27T11:23:00.879Z,75.06
2023-03-27T11:25:38.792Z,73.64
2023-03-27T11:28:15.886Z,73.92
2023-03-27T11:30:48.245Z,74.01
2023-03-27T11:33:33.872Z,73.46
2023-03-27T11:36:15.885Z,73.21
2023-03-27T11:38:49.618Z,72.27
2023-03-27T11:41:17.341Z,72.01
2023-03-27T11:43:45.261Z,74.13
2023-03-27T11:46:30.654Z,79.42
2023-03-27T11:49:15.026Z,82.61
2023-03-27T11:51:57.584Z,83.94
2023-03-27T11:54:43.136Z,83.29
2023-03-27T11:57:17.941Z,81.98
2023-03-27T12:00:07.691Z,79.40
2023-03-27T12:02:58.679Z,80.30
2023-03-27T12:05:39.624Z,80.37
2023-03-27T12:08:14.516Z,77.22
2023-03-27T12:10:46.526Z,74.10
2023-03-27T12:14:01.841Z,74.77
2023-03-27T12:16:49.600Z,72.07
2023-03-27T12:22:22.804Z,69.82
2023-03-27T12:25:14.136Z,73.44
2023-03-27T12:27:53.698Z,71.43
2023-03-27T12:30:33.912Z,69.78
2023-03-27T12:33:35.005Z,70.43
2023-03-27T12:36:06.876Z,70.47
2023-03-27T12:38:38.445Z,70.51
2023-03-27T12:41:20.294Z,69.04
2023-03-27T12:43:49.424Z,71.68
2023-03-27T12:46:32.637Z,72.96
2023-03-27T12:49:05.228Z,71.79
2023-03-27T12:51:44.523Z,72.10
2023-03-27T12:54:27.419Z,71.86
2023-03-27T12:57:06.622Z,69.28
2023-03-27T12:59:38.121Z,64.82
2023-03-27T13:02:44.852Z,62.87
2023-03-27T13:05:45.033Z,61.02
2023-03-27T13:08:42.674Z,59.82
2023-03-27T13:11:21.461Z,59.42
2023-03-27T13:14:21.464Z,57.84
2023-03-27T13:17:01.856Z,59.05
2023-03-27T13:19:44.402Z,56.01
2023-03-27T13:22:26.325Z,56.27
2023-03-27T13:25:17.636Z,57.42
2023-03-27T13:28:20.633Z,67.58
2023-03-27T13:30:51.575Z,71.28
2023-03-27T13:33:26.610Z,75.75
2023-03-27T13:36:06.008Z,74.68
2023-03-27T13:39:13.638Z,73.53
2023-03-27T13:42:11.502Z,70.30
2023-03-27T13:45:03.017Z,67.71
2023-03-27T13:48:00.593Z,65.02
2023-03-27T13:51:06.821Z,59.22
2023-03-27T13:53:48.172Z,61.15
2023-03-27T13:56:30.898Z,60.77
2023-03-27T13:59:38.456Z,60.49
2023-03-27T14:02:29.846Z,57.93
2023-03-27T14:05:13.760Z,57.44
2023-03-27T14:08:02.643Z,56.94
2023-03-27T14:10:47.334Z,58.70
2023-03-27T14:13:34.460Z,58.92
2023-03-27T14:16:18.189Z,57.26
2023-03-27T14:19:16.836Z,56.50
2023-03-27T14:21:56.610Z,56.79
2023-03-27T14:24:32.435Z,57.12
2023-03-27T14:27:02.165Z,57.10
2023-03-27T14:29:32.398Z,58.80
2023-03-27T14:32:04.470Z,66.53
2023-03-27T14:34:47.423Z,69.12
2023-03-27T14:37:31.259Z,72.43
2023-03-27T14:40:01.669Z,70.99
2023-03-27T14:42:32.989Z,70.46
2023-03-27T14:45:20.601Z,68.02
2023-03-27T14:47:50.965Z,67.32
2023-03-27T14:50:46.485Z,67.80
2023-03-27T14:53:20.280Z,65.88
2023-03-27T14:55:49.471Z,65.00
2023-03-27T14:58:19.687Z,65.37
2023-03-27T15:00:52.473Z,64.07
2023-03-27T15:03:24.624Z,64.00
2023-03-27T15:06:00.705Z,63.69
2023-03-27T15:08:34.093Z,63.96
2023-03-27T15:11:03.776Z,63.46
2023-03-27T15:13:36.778Z,63.84
2023-03-27T15:16:07.563Z,61.82
2023-03-27T15:18:39.707Z,65.40
2023-03-27T15:21:14.321Z,63.28
2023-03-27T15:23:50.013Z,62.66
2023-03-27T15:26:24.641Z,63.94
2023-03-27T15:29:01.744Z,63.72
2023-03-27T15:31:30.545Z,63.71
2023-03-27T15:34:02.316Z,65.08
2023-03-27T15:36:34.277Z,64.39
2023-03-27T15:39:07.228Z,64.34
2023-03-27T15:41:43.946Z,63.92
2023-03-27T15:44:16.973Z,60.78
2023-03-27T15:46:50.544Z,59.06
2023-03-27T15:49:24.384Z,58.93
2023-03-27T15:51:52.473Z,58.59
2023-03-27T15:54:31.335Z,58.53
2023-03-27T15:57:10.169Z,60.00
2023-03-27T15:59:52.000Z,61.35
2023-03-27T16:02:22.769Z,62.95
2023-03-27T16:04:54.417Z,63.56
2023-03-27T16:07:25.224Z,64.88
2023-03-27T16:09:56.963Z,66.10
2023-03-27T16:12:30.886Z,63.52
2023-03-27T16:14:59.014Z,64.13
2023-03-27T16:17:34.304Z,65.12
2023-03-27T16:20:07.644Z,64.59
2023-03-27T16:22:38.019Z,63.82
2023-03-27T16:25:09.902Z,64.43
2023-03-27T16:27:40.288Z,64.32
2023-03-27T16:30:10.290Z,63.94
2023-03-27T16:32:40.680Z,63.84
2023-03-27T16:35:09.281Z,64.66
2023-03-27T16:37:37.033Z,65.37
2023-03-27T16:40:05.276Z,64.83
2023-03-27T16:42:34.479Z,64.22
2023-03-27T16:45:02.264Z,64.46
2023-03-27T16:47:30.419Z,63.95
2023-03-27T16:50:10.990Z,62.97
2023-03-27T16:52:39.737Z,63.96
2023-03-27T16:55:08.559Z,64.96
2023-03-27T16:57:37.616Z,64.53
2023-03-27T17:00:06.878Z,65.62
2023-03-27T17:02:36.427Z,65.14
2023-03-27T17:05:04.977Z,64.67
2023-03-27T17:07:32.869Z,65.92
2023-03-27T17:10:01.052Z,65.21
2023-03-27T17:12:29.953Z,66.28
2023-03-27T17:14:59.048Z,70.23
2023-03-27T17:17:27.493Z,72.62
2023-03-27T17:19:56.084Z,73.21
2023-03-27T17:22:24.003Z,72.55
2023-03-27T17:24:56.670Z,73.16
2023-03-27T17:27:26.945Z,73.29
2023-03-27T17:29:55.726Z,71.36
2023-03-27T17:32:26.086Z,71.72
2023-03-27T17:34:54.230Z,71.24
2023-03-27T17:37:23.015Z,70.43
2023-03-27T17:39:51.461Z,70.61
2023-03-27T17:42:19.278Z,70.12
2023-03-27T17:44:47.337Z,69.96
2023-03-27T17:47:15.544Z,68.23
2023-03-27T17:49:45.399Z,68.44
2023-03-27T17:52:14.195Z,67.66
2023-03-27T17:54:42.077Z,66.33
2023-03-27T17:57:10.443Z,67.25
2023-03-27T17:59:38.561Z,66.53
2023-03-27T18:02:07.221Z,67.28
2023-03-27T18:04:36.455Z,67.24
2023-03-27T18:07:05.561Z,67.05
2023-03-27T18:09:33.657Z,67.77
2023-03-27T18:12:01.760Z,68.88
2023-03-27T18:14:29.621Z,69.33
2023-03-27T18:16:57.463Z,70.60
2023-03-27T18:19:26.050Z,70.05
2023-03-27T18:21:53.794Z,71.22
2023-03-27T18:24:23.046Z,70.31
2023-03-27T18:26:51.543Z,72.13
2023-03-27T18:29:21.136Z,71.65
2023-03-27T18:31:49.740Z,71.84
2023-03-27T18:34:17.853Z,72.68
2023-03-27T18:36:50.727Z,73.22
2023-03-27T18:39:19.679Z,75.19
2023-03-27T18:41:48.971Z,76.70
2023-03-27T18:44:18.253Z,76.73
2023-03-27T18:46:46.057Z,76.00
2023-03-27T18:49:24.371Z,77.48
2023-03-27T18:51:53.296Z,76.34
2023-03-27T18:54:21.172Z,76.35
2023-03-27T18:56:51.971Z,75.39
2023-03-27T18:59:19.696Z,75.23
2023-03-27T19:01:47.514Z,75.63
2023-03-27T19:04:17.360Z,75.40
2023-03-27T19:06:46.342Z,77.19
2023-03-27T19:09:14.346Z,77.83
2023-03-27T19:11:43.985Z,77.82
2023-03-27T19:14:13.562Z,76.48
2023-03-27T19:16:41.421Z,76.33
2023-03-27T19:19:09.198Z,76.78
2023-03-27T19:21:37.205Z,76.95
2023-03-27T19:24:05.708Z,77.99
2023-03-27T19:26:35.224Z,77.46
2023-03-27T19:29:03.178Z,78.63
2023-03-27T19:31:32.933Z,79.29
2023-03-27T19:34:02.021Z,77.94
2023-03-27T19:36:30.394Z,77.30
2023-03-27T19:38:59.670Z,76.34
2023-03-27T19:41:27.550Z,77.91
2023-03-27T19:43:56.788Z,78.03
2023-03-27T19:46:26.551Z,77.50
2023-03-27T19:48:55.822Z,77.04
2023-03-27T19:51:23.805Z,76.44
2023-03-27T19:53:51.524Z,77.44
2023-03-27T19:56:20.241Z,78.18
2023-03-27T19:58:48.094Z,77.26
2023-03-27T20:01:19.735Z,78.34
2023-03-27T20:03:47.677Z,78.05
2023-03-27T20:06:19.637Z,78.15
2023-03-27T20:08:48.584Z,77.66
2023-03-27T20:11:16.250Z,78.12
2023-03-27T20:13:55.382Z,78.15
2023-03-27T20:16:26.463Z,79.50
2023-03-27T20:19:03.775Z,79.02
2023-03-27T20:21:36.242Z,80.64
2023-03-27T20:24:05.776Z,81.82
2023-03-27T20:26:39.823Z,81.39
2023-03-27T20:29:08.563Z,81.73
2023-03-27T20:31:36.934Z,81.09
2023-03-27T20:34:06.621Z,82.55
2023-03-27T20:36:35.989Z,81.53
2023-03-27T20:39:08.991Z,81.42
2023-03-27T20:41:38.972Z,81.13
2023-03-27T20:44:15.755Z,80.54
2023-03-27T20:46:47.256Z,80.24
2023-03-27T20:49:37.562Z,80.14
2023-03-27T20:52:11.321Z,79.42
2023-03-27T20:54:39.220Z,79.38
2023-03-27T20:57:07.096Z,78.52
2023-03-27T20:59:34.884Z,78.60
2023-03-27T21:02:02.740Z,77.97
2023-03-27T21:04:31.611Z,77.39
2023-03-27T21:06:59.844Z,77.19
2023-03-27T21:09:29.014Z,78.01
2023-03-27T21:11:57.033Z,76.76
2023-03-27T21:14:24.890Z,77.01
2023-03-27T21:16:52.597Z,76.62
2023-03-27T21:19:20.800Z,76.23
2023-03-27T21:21:48.505Z,77.56
2023-03-27T21:24:16.239Z,77.82
2023-03-27T21:26:45.444Z,75.87
2023-03-27T21:29:15.326Z,76.47
2023-03-27T21:31:44.094Z,77.26
2023-03-27T21:34:11.873Z,77.86
2023-03-27T21:36:39.948Z,76.47
2023-03-27T21:39:08.831Z,77.28
2023-03-27T21:41:37.155Z,77.53
2023-03-27T21:44:06.620Z,78.41
2023-03-27T21:46:34.310Z,77.11
2023-03-27T21:49:02.399Z,76.50
2023-03-27T21:51:31.200Z,76.88
2023-03-27T21:53:59.016Z,77.40
2023-03-27T21:56:27.808Z,77.35
2023-03-27T21:58:57.352Z,76.80
2023-03-27T22:01:27.273Z,76.80
2023-03-27T22:03:59.499Z,76.91
2023-03-27T22:06:28.865Z,77.59
2023-03-27T22:08:57.124Z,77.11
2023-03-27T22:11:24.797Z,77.00
2023-03-27T22:13:53.768Z,76.12
2023-03-27T22:16:21.824Z,75.14
2023-03-27T22:18:50.988Z,76.31
2023-03-27T22:21:22.060Z,76.82
2023-03-27T22:23:50.957Z,76.62
2023-03-27T22:26:19.444Z,76.70
2023-03-27T22:28:47.357Z,78.66
2023-03-27T22:31:15.320Z,79.52
2023-03-27T22:33:43.080Z,79.42
2023-03-27T22:36:13.297Z,78.35
2023-03-27T22:38:41.552Z,79.81
2023-03-27T22:41:11.301Z,79.70
2023-03-27T22:43:39.069Z,79.67
2023-03-27T22:46:08.371Z,78.61
2023-03-27T22:48:36.214Z,78.26
2023-03-27T22:51:05.091Z,78.23
2023-03-27T22:53:35.297Z,77.64
2023-03-27T22:56:03.805Z,77.27
2023-03-27T22:58:32.068Z,76.99
2023-03-27T23:00:59.741Z,77.08
2023-03-27T23:03:28.790Z,76.51
2023-03-27T23:05:57.301Z,76.67
2023-03-27T23:08:28.636Z,77.11
2023-03-27T23:10:59.948Z,75.91
2023-03-27T23:13:29.296Z,77.52
2023-03-27T23:15:57.768Z,78.80
2023-03-27T23:18:26.199Z,79.22
2023-03-27T23:20:55.108Z,80.70
2023-03-27T23:23:23.204Z,80.62
2023-03-27T23:25:50.989Z,79.99
2023-03-27T23:28:20.255Z,79.48
2023-03-27T23:30:53.615Z,78.87
2023-03-27T23:33:22.657Z,78.77
2023-03-27T23:35:50.572Z,78.76
2023-03-27T23:38:18.371Z,79.45
2023-03-27T23:40:46.248Z,78.71
2023-03-27T23:43:13.952Z,77.62
2023-03-27T23:45:43.930Z,78.97
2023-03-27T23:48:11.622Z,78.72
2023-03-27T23:50:39.305Z,78.99
2023-03-27T23:53:06.980Z,79.72
2023-03-27T23:55:34.627Z,79.12
2023-03-27T23:58:02.319Z,79.76
